createdAt,value
2018-06-16T00:01:21.187Z,99.90
2018-06-16T00:03:53.122Z,99.90
2018-06-16T00:06:24.229Z,99.90
2018-06-16T00:08:54.955Z,99.90
2018-06-16T00:13:57.684Z,99.90
2018-06-16T00:16:29.735Z,99.90
2018-06-16T00:19:02.328Z,99.90
2018-06-16T00:21:34.032Z,99.90
2018-06-16T00:24:05.105Z,99.90
2018-06-16T00:26:36.325Z,99.90
2018-06-16T00:29:07.341Z,99.90
2018-06-16T00:31:38.703Z,99.90
2018-06-16T00:34:10.610Z,99.90
2018-06-16T00:36:41.692Z,99.90
2018-06-16T00:39:13.445Z,99.90
2018-06-16T00:41:44.373Z,99.90
2018-06-16T00:44:16.469Z,99.90
2018-06-16T00:46:47.677Z,99.90
2018-06-16T00:49:18.740Z,99.90
2018-06-16T00:51:49.847Z,99.90
2018-06-16T00:54:21.035Z,99.90
2018-06-16T00:57:08.342Z,99.90
2018-06-16T00:59:39.545Z,99.90
2018-06-16T01:02:10.819Z,99.90
2018-06-16T01:04:42.913Z,99.90
2018-06-16T01:07:15.195Z,99.90
2018-06-16T01:09:47.176Z,99.90
2018-06-16T01:12:18.498Z,99.90
2018-06-16T01:14:49.710Z,99.90
2018-06-16T01:17:20.632Z,99.90
2018-06-16T01:19:52.262Z,99.90
2018-06-16T01:22:24.293Z,99.90
2018-06-16T01:24:55.265Z,99.90
2018-06-16T01:27:26.515Z,99.90
2018-06-16T01:29:57.815Z,99.90
2018-06-16T01:32:29.371Z,99.90
2018-06-16T01:35:00.672Z,99.90
2018-06-16T01:37:31.927Z,99.90
2018-06-16T01:40:02.908Z,99.90
2018-06-16T01:42:34.521Z,99.90
2018-06-16T01:45:05.739Z,99.90
2018-06-16T01:47:36.843Z,99.90
2018-06-16T01:50:08.748Z,99.90
2018-06-16T01:52:39.794Z,99.90
2018-06-16T01:55:10.868Z,99.90
2018-06-16T01:57:42.582Z,99.90
2018-06-16T02:00:13.505Z,99.90
2018-06-16T02:02:44.539Z,99.90
2018-06-16T02:05:15.675Z,99.90
2018-06-16T02:07:48.622Z,99.90
2018-06-16T02:10:20.253Z,99.90
2018-06-16T02:12:51.478Z,99.90
2018-06-16T02:17:53.585Z,99.90
2018-06-16T02:20:24.771Z,99.90
2018-06-16T02:25:26.832Z,99.90
2018-06-16T02:27:57.963Z,99.90
2018-06-16T02:30:29.533Z,99.90
2018-06-16T02:33:01.693Z,99.90
2018-06-16T02:35:33.868Z,99.90
2018-06-16T02:38:05.405Z,99.90
2018-06-16T02:40:36.449Z,99.90
2018-06-16T02:43:07.792Z,99.90
2018-06-16T02:45:40.164Z,99.90
2018-06-16T02:50:42.385Z,99.90
2018-06-16T02:53:13.770Z,99.90
2018-06-16T02:55:44.882Z,99.90
2018-06-16T02:58:15.954Z,99.90
2018-06-16T03:00:46.998Z,99.90
2018-06-16T03:03:18.205Z,99.90
2018-06-16T03:08:21.321Z,99.90
2018-06-16T03:10:52.323Z,99.90
2018-06-16T03:13:23.673Z,99.90
2018-06-16T03:15:55.286Z,99.90
2018-06-16T03:18:26.688Z,99.90
2018-06-16T03:20:57.806Z,99.90
2018-06-16T03:23:29.058Z,99.90
2018-06-16T03:26:00.453Z,99.90
2018-06-16T03:28:32.023Z,99.90
2018-06-16T03:31:02.966Z,99.90
2018-06-16T03:33:34.708Z,99.90
2018-06-16T03:36:05.868Z,99.90
2018-06-16T03:38:37.016Z,99.90
2018-06-16T03:41:08.178Z,99.90
2018-06-16T03:43:39.385Z,99.90
2018-06-16T03:46:10.804Z,99.90
2018-06-16T03:48:42.780Z,99.90
2018-06-16T03:51:13.725Z,99.90
2018-06-16T03:53:45.025Z,99.90
2018-06-16T03:56:16.548Z,99.90
2018-06-16T03:58:48.115Z,99.90
2018-06-16T04:01:19.341Z,99.90
2018-06-16T04:08:52.991Z,99.90
2018-06-16T04:11:24.251Z,99.90
2018-06-16T04:13:56.832Z,99.90
2018-06-16T04:16:28.085Z,99.90
2018-06-16T04:18:59.796Z,99.90
2018-06-16T04:21:31.261Z,99.90
2018-06-16T04:24:02.443Z,99.90
2018-06-16T04:26:33.880Z,99.90
2018-06-16T04:29:05.151Z,99.90
2018-06-16T04:31:36.489Z,99.90
2018-06-16T04:34:08.605Z,99.90
2018-06-16T04:36:39.871Z,99.90
2018-06-16T04:39:11.852Z,99.90
2018-06-16T04:41:42.998Z,99.90
2018-06-16T04:44:14.030Z,99.90
2018-06-16T04:46:46.246Z,99.90
2018-06-16T04:49:17.387Z,99.90
2018-06-16T04:51:48.654Z,99.90
2018-06-16T04:54:20.011Z,99.90
2018-06-16T04:59:22.163Z,99.90
2018-06-16T05:01:53.185Z,99.90
2018-06-16T05:04:24.722Z,99.90
2018-06-16T05:06:55.751Z,99.90
2018-06-16T05:09:27.822Z,99.90
2018-06-16T05:11:59.146Z,99.90
2018-06-16T05:14:30.622Z,99.90
2018-06-16T05:17:01.960Z,99.90
2018-06-16T05:19:33.734Z,99.90
2018-06-16T05:22:05.694Z,99.90
2018-06-16T05:24:36.800Z,99.90
2018-06-16T05:27:08.508Z,99.90
2018-06-16T05:29:39.698Z,99.90
2018-06-16T05:32:11.003Z,99.90
2018-06-16T05:34:43.111Z,99.90
2018-06-16T05:37:15.180Z,99.90
2018-06-16T05:42:16.886Z,99.90
2018-06-16T05:44:49.936Z,99.90
2018-06-16T05:47:21.188Z,99.90
2018-06-16T05:49:52.286Z,99.90
2018-06-16T05:52:24.784Z,99.90
2018-06-16T05:54:57.105Z,99.90
2018-06-16T05:57:28.605Z,99.90
2018-06-16T05:59:59.853Z,99.90
2018-06-16T06:02:31.644Z,99.90
2018-06-16T06:05:02.955Z,99.90
2018-06-16T06:07:34.551Z,99.90
2018-06-16T06:10:06.279Z,99.90
2018-06-16T06:12:38.245Z,99.90
2018-06-16T06:15:10.027Z,99.90
2018-06-16T06:17:41.296Z,99.90
2018-06-16T06:20:11.967Z,99.90
2018-06-16T06:22:43.658Z,99.90
2018-06-16T06:25:16.063Z,99.90
2018-06-16T06:27:47.225Z,99.90
2018-06-16T06:30:18.247Z,99.90
2018-06-16T06:32:49.629Z,99.90
2018-06-16T06:35:20.629Z,99.90
2018-06-16T06:42:54.316Z,99.90
2018-06-16T06:45:26.188Z,99.90
2018-06-16T06:50:28.462Z,99.60
2018-06-16T06:52:59.795Z,99.20
2018-06-16T06:55:32.429Z,97.80
2018-06-16T06:58:04.340Z,97.10
2018-06-16T07:00:36.052Z,96.20
2018-06-16T07:03:06.891Z,96.10
2018-06-16T07:08:09.412Z,93.90
2018-06-16T07:10:40.494Z,93.00
2018-06-16T07:13:12.207Z,92.50
2018-06-16T07:15:44.384Z,92.10
2018-06-16T07:18:16.056Z,91.50
2018-06-16T07:20:48.096Z,90.90
2018-06-16T07:23:19.869Z,90.10
2018-06-16T07:25:52.215Z,90.00
2018-06-16T07:28:23.374Z,89.50
2018-06-16T07:30:55.209Z,89.40
2018-06-16T07:33:27.707Z,88.50
2018-06-16T07:38:31.989Z,87.70
2018-06-16T07:41:03.373Z,85.50
2018-06-16T07:43:34.728Z,86.00
2018-06-16T07:46:07.082Z,86.20
2018-06-16T07:48:39.656Z,84.30
2018-06-16T07:51:11.358Z,86.40
2018-06-16T07:53:43.720Z,84.60
2018-06-16T07:56:15.094Z,79.90
2018-06-16T07:58:46.335Z,77.50
2018-06-16T08:01:17.574Z,78.20
2018-06-16T08:03:49.183Z,80.80
2018-06-16T08:06:20.859Z,78.10
2018-06-16T08:08:53.183Z,76.70
2018-06-16T08:11:25.151Z,74.70
2018-06-16T08:16:28.674Z,71.40
2018-06-16T08:18:59.732Z,70.80
2018-06-16T08:21:31.369Z,70.70
2018-06-16T08:24:02.490Z,69.40
2018-06-16T08:26:33.995Z,69.90
2018-06-16T08:29:05.718Z,67.80
2018-06-16T08:31:38.422Z,67.50
2018-06-16T08:34:10.492Z,65.30
2018-06-16T08:36:41.700Z,65.70
2018-06-16T08:39:13.456Z,65.40
2018-06-16T08:41:46.122Z,66.30
2018-06-16T08:44:17.909Z,62.90
2018-06-16T08:46:49.134Z,61.70
2018-06-16T08:49:20.367Z,60.90
2018-06-16T08:51:51.550Z,62.50
2018-06-16T08:54:23.834Z,61.00
2018-06-16T08:59:26.979Z,61.10
2018-06-16T09:01:59.259Z,59.90
2018-06-16T09:04:31.526Z,59.60
2018-06-16T09:07:05.247Z,60.50
2018-06-16T09:09:37.612Z,59.50
2018-06-16T09:12:09.239Z,60.00
2018-06-16T09:14:41.951Z,58.60
2018-06-16T09:17:17.064Z,59.00
2018-06-16T09:19:48.686Z,57.70
2018-06-16T09:22:20.108Z,58.60
2018-06-16T09:24:53.198Z,55.00
2018-06-16T09:27:29.966Z,55.50
2018-06-16T09:30:00.968Z,55.70
2018-06-16T09:32:31.994Z,54.50
2018-06-16T09:35:04.052Z,55.50
2018-06-16T09:37:35.803Z,54.00
2018-06-16T09:40:08.006Z,52.20
2018-06-16T09:42:39.086Z,52.70
2018-06-16T09:45:10.540Z,52.80
2018-06-16T09:47:42.930Z,51.60
2018-06-16T09:50:15.226Z,50.20
2018-06-16T09:52:46.839Z,49.30
2018-06-16T09:55:19.456Z,51.60
2018-06-16T09:57:51.141Z,51.90
2018-06-16T10:00:24.379Z,52.30
2018-06-16T10:02:56.526Z,50.20
2018-06-16T10:05:28.636Z,50.00
2018-06-16T10:07:59.809Z,49.50
2018-06-16T10:10:31.137Z,48.30
2018-06-16T10:13:02.315Z,48.80
2018-06-16T10:15:34.267Z,48.20
2018-06-16T10:18:05.791Z,46.90
2018-06-16T10:20:37.861Z,46.70
2018-06-16T10:23:09.960Z,47.70
2018-06-16T10:25:41.409Z,48.20
2018-06-16T10:28:13.433Z,47.80
2018-06-16T10:30:44.973Z,47.80
2018-06-16T10:33:22.747Z,49.60
2018-06-16T10:35:54.807Z,51.30
2018-06-16T10:38:27.118Z,50.50
2018-06-16T10:43:31.124Z,52.00
2018-06-16T10:46:02.451Z,52.60
2018-06-16T10:51:04.361Z,53.70
2018-06-16T10:53:35.804Z,54.80
2018-06-16T10:56:08.654Z,55.60
2018-06-16T10:58:40.219Z,56.00
2018-06-16T11:01:11.602Z,53.00
2018-06-16T11:03:43.080Z,51.40
2018-06-16T11:06:14.274Z,51.20
2018-06-16T11:08:46.465Z,51.80
2018-06-16T11:11:17.912Z,53.00
2018-06-16T11:13:49.943Z,54.00
2018-06-16T11:16:21.560Z,54.70
2018-06-16T11:18:53.353Z,54.70
2018-06-16T11:21:24.708Z,54.30
2018-06-16T11:23:56.029Z,52.10
2018-06-16T11:26:27.341Z,50.40
2018-06-16T11:28:59.475Z,48.50
2018-06-16T11:31:32.481Z,48.80
2018-06-16T11:34:04.391Z,48.00
2018-06-16T11:36:35.675Z,47.30
2018-06-16T11:39:13.911Z,48.20
2018-06-16T11:41:45.570Z,48.40
2018-06-16T11:44:16.957Z,49.90
2018-06-16T11:46:49.961Z,51.00
2018-06-16T11:49:21.394Z,51.50
2018-06-16T11:51:57.529Z,50.80
2018-06-16T11:54:29.072Z,50.70
2018-06-16T11:57:00.593Z,47.90
2018-06-16T11:59:32.111Z,48.10
2018-06-16T12:02:04.482Z,48.70
2018-06-16T12:04:36.301Z,49.80
2018-06-16T12:09:38.192Z,48.20
2018-06-16T12:12:09.958Z,47.30
2018-06-16T12:14:41.203Z,48.80
2018-06-16T12:17:12.516Z,47.60
2018-06-16T12:19:44.863Z,46.80
2018-06-16T12:24:48.555Z,45.40
2018-06-16T12:27:20.270Z,45.50
2018-06-16T12:29:51.462Z,44.80
2018-06-16T12:32:22.561Z,44.10
2018-06-16T12:34:53.860Z,44.80
2018-06-16T12:37:25.854Z,44.20
2018-06-16T12:40:00.633Z,44.80
2018-06-16T12:42:32.080Z,47.60
2018-06-16T12:45:04.716Z,48.50
2018-06-16T12:47:36.339Z,50.30
2018-06-16T12:50:09.935Z,48.80
2018-06-16T12:52:43.309Z,47.90
2018-06-16T12:55:15.578Z,47.30
2018-06-16T12:57:48.970Z,47.80
2018-06-16T13:00:22.088Z,47.00
2018-06-16T13:02:56.093Z,45.20
2018-06-16T13:05:27.793Z,46.60
2018-06-16T13:08:00.404Z,46.00
2018-06-16T13:10:40.366Z,47.40
2018-06-16T13:13:12.923Z,47.50
2018-06-16T13:15:44.441Z,47.90
2018-06-16T13:18:23.628Z,47.90
2018-06-16T13:23:27.329Z,47.10
2018-06-16T13:25:59.380Z,47.00
2018-06-16T13:28:31.445Z,48.60
2018-06-16T13:31:03.443Z,47.20
2018-06-16T13:33:37.025Z,46.50
2018-06-16T13:36:11.174Z,47.00
2018-06-16T13:38:42.309Z,46.70
2018-06-16T13:43:44.584Z,47.30
2018-06-16T13:46:16.851Z,47.40
2018-06-16T13:48:49.522Z,48.60
2018-06-16T13:53:53.042Z,47.70
2018-06-16T13:56:25.154Z,46.80
2018-06-16T14:01:27.729Z,46.70
2018-06-16T14:03:59.054Z,46.90
2018-06-16T14:06:31.775Z,47.20
2018-06-16T14:09:05.378Z,46.60
2018-06-16T14:11:40.284Z,47.20
2018-06-16T14:14:13.252Z,48.80
2018-06-16T14:16:48.766Z,48.20
2018-06-16T14:19:25.895Z,48.80
2018-06-16T14:22:00.232Z,48.70
2018-06-16T14:24:31.924Z,45.40
2018-06-16T14:27:06.520Z,46.10
2018-06-16T14:29:46.199Z,46.10
2018-06-16T14:32:19.394Z,46.10
2018-06-16T14:34:50.972Z,46.60
2018-06-16T14:37:22.284Z,46.20
2018-06-16T14:39:54.265Z,46.30
2018-06-16T14:42:26.497Z,46.40
2018-06-16T14:44:58.991Z,48.30
2018-06-16T14:47:32.054Z,48.70
2018-06-16T14:50:08.196Z,49.00
2018-06-16T14:52:40.781Z,51.00
2018-06-16T14:55:12.529Z,52.00
2018-06-16T15:00:16.547Z,52.40
2018-06-16T15:02:49.012Z,52.70
2018-06-16T15:05:22.361Z,52.70
2018-06-16T15:07:54.552Z,50.80
2018-06-16T15:10:26.444Z,50.20
2018-06-16T15:12:57.936Z,50.80
2018-06-16T15:18:03.360Z,51.60
2018-06-16T15:20:40.989Z,51.60
2018-06-16T15:23:14.880Z,51.80
2018-06-16T15:25:48.408Z,51.80
2018-06-16T15:28:23.104Z,51.60
2018-06-16T15:30:54.673Z,52.10
2018-06-16T15:36:00.765Z,53.20
2018-06-16T15:38:33.024Z,53.30
2018-06-16T15:41:05.728Z,52.60
2018-06-16T15:43:37.417Z,53.20
2018-06-16T15:46:09.728Z,54.00
2018-06-16T15:49:00.152Z,53.70
2018-06-16T15:51:34.036Z,53.70
2018-06-16T15:54:11.006Z,53.60
2018-06-16T15:56:42.780Z,52.80
2018-06-16T15:59:15.048Z,53.00
2018-06-16T16:01:46.690Z,53.70
2018-06-16T16:04:18.590Z,53.30
2018-06-16T16:06:50.407Z,52.50
2018-06-16T16:09:21.567Z,51.90
2018-06-16T16:11:54.455Z,52.30
2018-06-16T16:14:27.102Z,52.40
2018-06-16T16:16:59.185Z,52.90
2018-06-16T16:19:30.581Z,53.00
2018-06-16T16:22:03.415Z,53.40
2018-06-16T16:24:35.016Z,53.90
2018-06-16T16:29:43.008Z,54.30
2018-06-16T16:32:15.924Z,55.00
2018-06-16T16:34:47.646Z,54.60
2018-06-16T16:37:18.910Z,54.30
2018-06-16T16:39:51.015Z,54.30
2018-06-16T16:42:22.764Z,54.50
2018-06-16T16:44:54.963Z,54.90
2018-06-16T16:47:26.525Z,54.10
2018-06-16T16:49:59.880Z,54.30
2018-06-16T16:52:31.098Z,54.30
2018-06-16T16:57:39.743Z,54.60
2018-06-16T17:00:11.682Z,55.00
2018-06-16T17:02:43.800Z,55.10
2018-06-16T17:05:19.701Z,54.90
2018-06-16T17:07:52.630Z,55.00
2018-06-16T17:10:24.576Z,55.30
2018-06-16T17:12:56.612Z,56.00
2018-06-16T17:15:27.785Z,56.00
2018-06-16T17:17:58.939Z,56.40
2018-06-16T17:20:30.543Z,55.70
2018-06-16T17:23:03.107Z,56.20
2018-06-16T17:25:35.153Z,56.90
2018-06-16T17:28:07.706Z,57.20
2018-06-16T17:30:39.053Z,57.70
2018-06-16T17:33:10.128Z,58.00
2018-06-16T17:35:42.247Z,58.70
2018-06-16T17:38:13.419Z,58.70
2018-06-16T17:40:45.175Z,58.80
2018-06-16T17:43:17.298Z,58.70
2018-06-16T17:45:48.748Z,59.20
2018-06-16T17:48:19.755Z,59.10
2018-06-16T17:50:50.683Z,59.40
2018-06-16T17:53:22.813Z,60.00
2018-06-16T17:55:56.323Z,60.80
2018-06-16T17:58:28.157Z,61.00
2018-06-16T18:01:00.345Z,61.30
2018-06-16T18:03:32.894Z,61.60
2018-06-16T18:06:05.191Z,62.20
2018-06-16T18:08:37.291Z,62.70
2018-06-16T18:11:08.430Z,63.40
2018-06-16T18:13:39.853Z,63.70
2018-06-16T18:16:11.490Z,64.40
2018-06-16T18:18:43.556Z,65.00
2018-06-16T18:21:14.882Z,65.10
2018-06-16T18:23:45.982Z,65.90
2018-06-16T18:26:17.150Z,66.70
2018-06-16T18:28:48.426Z,68.00
2018-06-16T18:31:20.292Z,67.50
2018-06-16T18:33:52.098Z,68.40
2018-06-16T18:36:24.269Z,69.80
2018-06-16T18:38:55.712Z,69.80
2018-06-16T18:41:28.360Z,70.30
2018-06-16T18:44:01.097Z,70.70
2018-06-16T18:46:32.565Z,71.40
2018-06-16T18:49:03.610Z,72.10
2018-06-16T18:51:36.750Z,72.80
2018-06-16T18:56:40.283Z,74.20
2018-06-16T18:59:11.781Z,73.90
2018-06-16T19:04:15.576Z,74.90
2018-06-16T19:06:48.911Z,75.10
2018-06-16T19:09:22.028Z,75.50
2018-06-16T19:11:53.986Z,76.00
2018-06-16T19:14:25.525Z,76.30
2018-06-16T19:16:57.049Z,76.40
2018-06-16T19:19:28.479Z,76.60
2018-06-16T19:22:00.350Z,76.70
2018-06-16T19:24:32.661Z,76.90
2018-06-16T19:27:04.450Z,77.00
2018-06-16T19:29:36.314Z,76.80
2018-06-16T19:32:08.894Z,77.00
2018-06-16T19:34:41.220Z,76.20
2018-06-16T19:37:13.387Z,76.80
2018-06-16T19:39:45.415Z,76.30
2018-06-16T19:42:16.720Z,75.50
2018-06-16T19:44:48.904Z,74.80
2018-06-16T19:47:21.334Z,74.20
2018-06-16T19:49:56.447Z,74.20
2018-06-16T19:52:29.063Z,76.00
2018-06-16T19:55:00.344Z,79.50
2018-06-16T19:57:32.348Z,81.90
2018-06-16T20:02:40.630Z,85.40
2018-06-16T20:05:12.784Z,87.40
2018-06-16T20:07:46.321Z,90.10
2018-06-16T20:10:18.901Z,90.30
2018-06-16T20:12:52.326Z,91.60
2018-06-16T20:15:26.974Z,92.50
2018-06-16T20:18:01.402Z,93.20
2018-06-16T20:20:34.071Z,94.90
2018-06-16T20:23:05.930Z,96.60
2018-06-16T20:25:40.762Z,97.60
2018-06-16T20:28:13.070Z,97.80
2018-06-16T20:30:45.845Z,98.90
2018-06-16T20:33:17.689Z,99.60
2018-06-16T20:35:49.592Z,99.90
2018-06-16T20:38:22.135Z,99.90
2018-06-16T20:40:55.135Z,99.90
2018-06-16T20:43:27.942Z,99.90
2018-06-16T20:45:59.744Z,99.90
2018-06-16T20:48:31.031Z,99.90
2018-06-16T20:51:03.185Z,99.90
2018-06-16T20:53:37.047Z,99.90
2018-06-16T20:56:10.400Z,99.90
2018-06-16T20:58:42.295Z,99.90
2018-06-16T21:01:15.798Z,99.90
2018-06-16T21:03:48.616Z,99.90
2018-06-16T21:06:21.422Z,99.90
2018-06-16T21:11:24.385Z,99.90
2018-06-16T21:13:55.625Z,99.90
2018-06-16T21:16:27.976Z,99.90
2018-06-16T21:18:59.773Z,99.90
2018-06-16T21:21:34.284Z,99.90
2018-06-16T21:24:05.931Z,99.90
2018-06-16T21:26:37.224Z,99.90
2018-06-16T21:29:09.979Z,99.90
2018-06-16T21:31:41.817Z,99.90
2018-06-16T21:34:15.552Z,99.90
2018-06-16T21:39:18.708Z,99.90
2018-06-16T21:41:49.894Z,99.90
2018-06-16T21:44:21.813Z,99.90
2018-06-16T21:46:53.966Z,99.90
2018-06-16T21:49:25.478Z,99.90
2018-06-16T21:54:28.977Z,99.90
2018-06-16T21:57:03.325Z,99.90
2018-06-16T21:59:34.912Z,99.90
2018-06-16T22:02:09.532Z,99.90
2018-06-16T22:04:41.283Z,99.90
2018-06-16T22:07:12.787Z,99.90
2018-06-16T22:09:49.369Z,99.90
2018-06-16T22:12:22.063Z,99.90
2018-06-16T22:14:54.630Z,99.90
2018-06-16T22:17:26.109Z,99.90
2018-06-16T22:19:57.486Z,99.90
2018-06-16T22:22:29.551Z,99.90
2018-06-16T22:25:01.132Z,99.90
2018-06-16T22:27:32.299Z,99.90
2018-06-16T22:30:04.718Z,99.90
2018-06-16T22:32:36.053Z,99.90
2018-06-16T22:35:07.139Z,99.90
2018-06-16T22:37:37.878Z,99.90
2018-06-16T22:40:09.163Z,99.90
2018-06-16T22:42:40.449Z,99.90
2018-06-16T22:45:11.804Z,99.90
2018-06-16T22:47:44.198Z,99.90
2018-06-16T22:50:15.364Z,99.90
2018-06-16T22:52:46.572Z,99.90
2018-06-16T22:55:17.742Z,99.90
2018-06-16T22:57:49.442Z,99.90
2018-06-16T23:00:29.436Z,99.90
2018-06-16T23:03:01.172Z,99.90
2018-06-16T23:05:32.679Z,99.90
2018-06-16T23:08:04.297Z,99.90
2018-06-16T23:10:36.260Z,99.90
2018-06-16T23:13:07.472Z,99.90
2018-06-16T23:15:39.353Z,99.90
2018-06-16T23:18:12.579Z,99.90
2018-06-16T23:20:44.397Z,99.90
2018-06-16T23:23:15.869Z,99.90
2018-06-16T23:25:47.474Z,99.90
2018-06-16T23:28:18.745Z,99.90
2018-06-16T23:30:50.391Z,99.90
2018-06-16T23:33:21.719Z,99.90
2018-06-16T23:35:53.701Z,99.90
2018-06-16T23:40:56.886Z,99.90
2018-06-16T23:43:28.069Z,99.90
2018-06-16T23:45:59.432Z,99.90
2018-06-16T23:48:30.770Z,99.90
2018-06-16T23:51:03.682Z,99.90
2018-06-16T23:53:35.530Z,99.90
2018-06-16T23:56:07.427Z,99.90
2018-06-16T23:58:38.563Z,99.90
